Terminal Aerodrome Forecast
Issued by NWS

Home | Current Version | Previous Version | Text Only | Print | Product List | Glossary Off
Versions: 1 2 3 4 5 6 7 8 9 10 11 12 13 14 15

876
FTUS43 KMPX 252342
TAFAXN
TAF
KAXN 252342Z 2600/2624 30006KT P6SM FEW025 BKN040
     FM260200 28004KT P6SM FEW040
     FM261600 23009KT P6SM SCT200=

USA.gov is the U.S. government's official web portal to all federal, state and local government web resources and services.